CW6020 Teulada ES current weather conditions

sailwx.info

Wind from 180 at 2 knots gusting 3

Air temperature 18.3° C
Dewpoint 11.2° C

Last reported at 2018-Dec-15 12:01 UTC.
Time now 2018-Dec-15 12:20 UTC

Location: N 38°44' E 000°06'.
View on Google Maps.

See reports from other nearby stations

  
Tides and Currents Weather Stations Pressure Air Temp Water Temp Dewpoint Dewpoint Depression Visibility Wind Speed Wind Dir Waves Ship Positions
date/time (UTC)wind fromknots sea level pressurealtimeterstation pressurevisibilityair tempwater tempwave heightnotes
2018-Dec-15 12:01 180 2 gusting 3 18.3
2018-Dec-15 11:51 270 2 gusting 4 18.3
2018-Dec-15 11:41 180 2 gusting 4 18.3
2018-Dec-15 11:31 315 2 gusting 5 18.3
2018-Dec-15 11:21 18.3
2018-Dec-15 11:11 045 2 gusting 5 18.3
2018-Dec-15 11:01 270 0 gusting 2 17.8
2018-Dec-15 10:51 135 0 gusting 2 17.8
2018-Dec-15 10:41 225 1 gusting 2 17.2
2018-Dec-15 10:31 180 1 gusting 2 16.7
2018-Dec-15 10:21 135 0 gusting 3 16.7
2018-Dec-15 10:11 180 0 gusting 1 16.7
2018-Dec-15 10:01 337 2 gusting 3 16.1
2018-Dec-15 09:51 15.6
2018-Dec-15 09:41 225 15.6
2018-Dec-15 09:31 15.0
2018-Dec-15 09:21 315 14.4
2018-Dec-15 09:11 270 0 gusting 2 13.9
2018-Dec-15 09:01 225 13.3
2018-Dec-15 08:51 270 0 gusting 2 12.8
2018-Dec-15 08:41 247 2 gusting 4 12.2
2018-Dec-15 08:31 270 2 gusting 4 11.7
2018-Dec-15 08:21 225 1 gusting 3 11.7
2018-Dec-15 08:11 315 1 gusting 3 10.6
2018-Dec-15 08:01 315 2 gusting 5 10.6
2018-Dec-15 07:52 10.0
2018-Dec-15 07:41 315 1 gusting 2 9.4
2018-Dec-15 07:31 315 1 gusting 3 8.9
2018-Dec-15 07:21 8.9
2018-Dec-15 07:11 8.9
2018-Dec-15 07:01 225 8.9
2018-Dec-15 06:51 090 9.4
2018-Dec-15 06:41 9.4
2018-Dec-15 06:31 135 10.0
2018-Dec-15 06:21 10.0
2018-Dec-15 06:11 10.0
2018-Dec-15 06:01 10.6
2018-Dec-15 05:51 225 10.6
2018-Dec-15 05:41 225 2 gusting 5 10.6
2018-Dec-15 05:31 315 3 gusting 7 10.6
2018-Dec-15 05:21 270 2 gusting 5 10.6
2018-Dec-15 05:11 315 1 gusting 5 10.6
2018-Dec-15 05:01 315 2 gusting 5 10.6
2018-Dec-15 04:51 315 4 gusting 6 10.6
2018-Dec-15 04:41 315 2 gusting 5 10.0
2018-Dec-15 04:31 315 2 gusting 2 10.6
2018-Dec-15 04:21 270 1 gusting 2 10.6
2018-Dec-15 04:11 270 10.6
2018-Dec-15 04:01 10.6
2018-Dec-15 03:51 11.1
2018-Dec-15 03:41 292 1 gusting 2 11.1
2018-Dec-15 03:31 270 1 gusting 4 11.1
2018-Dec-15 03:21 270 5 gusting 8 11.1
2018-Dec-15 03:11 045 6 gusting 12 10.6
2018-Dec-15 03:01 315 6 gusting 9 10.6
2018-Dec-15 02:51 270 2 gusting 5 10.6
2018-Dec-15 02:41 315 2 gusting 3 10.6
2018-Dec-15 02:31 10.6
2018-Dec-15 02:21 270 0 gusting 1 10.6
2018-Dec-15 02:11 337 10.6
2018-Dec-15 02:01 315 2 gusting 5 10.6
2018-Dec-15 01:51 270 1 gusting 3 11.1
2018-Dec-15 01:41 315 1 gusting 2 11.1
2018-Dec-15 01:31 225 1 gusting 2 11.1
2018-Dec-15 01:21 315 2 gusting 4 11.1
2018-Dec-15 01:11 315 2 gusting 3 11.1
2018-Dec-15 01:01 337 5 gusting 6 11.1
2018-Dec-15 00:51 315 3 gusting 7 11.1
2018-Dec-15 00:41 270 2 gusting 5 11.1
2018-Dec-15 00:31 270 4 gusting 6 11.1
2018-Dec-15 00:21 315 2 gusting 6 11.1
2018-Dec-15 00:11 315 4 gusting 7 11.1
2018-Dec-15 00:01 315 3 gusting 5 11.1
2018-Dec-14 23:51 315 2 gusting 5 11.1
2018-Dec-14 23:41 225 3 gusting 8 11.1
2018-Dec-14 23:31 270 2 gusting 6 11.1
2018-Dec-14 23:21 315 5 gusting 7 11.1
2018-Dec-14 23:11 315 3 gusting 5 11.1
2018-Dec-14 23:01 11.1
2018-Dec-14 22:51 11.1
2018-Dec-14 22:41 315 3 gusting 6 11.1
2018-Dec-14 22:31 315 2 gusting 3 11.1
2018-Dec-14 22:21 11.1
2018-Dec-14 22:11 11.7
2018-Dec-14 22:01 270 1 gusting 3 11.7
2018-Dec-14 21:49 022 0 gusting 1 11.7
2018-Dec-14 21:36 315 4 gusting 7 11.7
2018-Dec-14 21:26 045 2 gusting 4 11.7
2018-Dec-14 21:16 270 3 gusting 7 11.7
2018-Dec-14 21:06 11.7
2018-Dec-14 20:56 247 5 gusting 9 11.7
2018-Dec-14 20:46 315 5 gusting 7 11.7
2018-Dec-14 20:36 11.7
2018-Dec-14 20:26 337 3 gusting 6 11.7
2018-Dec-14 20:16 270 2 gusting 5 12.2
2018-Dec-14 20:06 12.2
2018-Dec-14 19:56 225 2 gusting 4 12.2
2018-Dec-14 19:46 315 2 gusting 5 12.2
2018-Dec-14 19:36 315 2 gusting 4 12.2
2018-Dec-14 19:26 315 2 gusting 4 12.2
2018-Dec-14 19:16 315 4 gusting 6 12.2
2018-Dec-14 19:06 270 4 gusting 8 12.2
2018-Dec-14 18:56 292 3 gusting 6 12.2
2018-Dec-14 18:46 315 3 gusting 5 12.2
2018-Dec-14 18:36 270 2 gusting 5 12.2
2018-Dec-14 18:26 315 2 gusting 3 12.2
2018-Dec-14 18:16 225 0 gusting 2 12.2
2018-Dec-14 18:06 292 2 gusting 3 12.8
2018-Dec-14 17:56 315 0 gusting 2 12.8
2018-Dec-14 17:46 315 12.8
2018-Dec-14 17:36 270 0 gusting 2 13.3
2018-Dec-14 17:26 270 0 gusting 3 13.9
2018-Dec-14 17:16 315 0 gusting 2 13.9
2018-Dec-14 17:06 315 1 gusting 2 14.4
2018-Dec-14 16:56 315 15.0
2018-Dec-14 16:46 270 2 gusting 4 15.6
2018-Dec-14 16:36 270 0 gusting 2 16.1
2018-Dec-14 16:26 180 0 gusting 2 16.7
2018-Dec-14 16:16 315 16.7
2018-Dec-14 16:06 315 1 gusting 2 17.2
2018-Dec-14 15:56 270 17.2
2018-Dec-14 15:46 270 17.2
2018-Dec-14 15:36 315 1 gusting 4 17.2
2018-Dec-14 15:26 270 2 gusting 5 17.8
2018-Dec-14 15:16 270 1 gusting 3 17.8
2018-Dec-14 15:06 022 1 gusting 2 17.8
2018-Dec-14 14:56 315 2 gusting 5 17.8
2018-Dec-14 14:46 315 2 gusting 4 17.8
2018-Dec-14 14:36 315 0 gusting 2 17.8
2018-Dec-14 14:26 17.2
2018-Dec-14 14:16 315 5 gusting 9 17.2
2018-Dec-14 14:06 17.2
2018-Dec-14 13:56 315 2 gusting 3 16.7
2018-Dec-14 13:46 315 1 gusting 3 16.7
2018-Dec-14 13:36 315 3 gusting 5 16.7
2018-Dec-14 13:26 315 2 gusting 5 16.7
2018-Dec-14 13:16 270 0 gusting 2 16.1
2018-Dec-14 13:06 315 2 gusting 5 16.1
2018-Dec-14 12:56 247 2 gusting 3 16.1
2018-Dec-14 12:46 315 3 gusting 5 15.6
2018-Dec-14 12:36 15.6
2018-Dec-14 12:26 15.6
2018-Dec-14 12:16 225 2 gusting 3 15.0
2018-Dec-14 12:06 180 1 gusting 3 14.4
2018-Dec-14 11:56 315 1 gusting 3 13.9
2018-Dec-14 11:46 270 2 gusting 5 13.3
2018-Dec-14 11:36 12.2
2018-Dec-14 11:26 315 3 gusting 6 11.7
2018-Dec-14 11:16 11.7
2018-Dec-14 11:06 11.1
2018-Dec-14 10:56 315 2 gusting 5 11.1
2018-Dec-14 10:46 315 3 gusting 6 11.1
2018-Dec-14 10:36 315 5 gusting 9 10.6
2018-Dec-14 10:26 10.6
2018-Dec-14 10:16 315 5 gusting 7 10.6
2018-Dec-14 10:06 10.0
2018-Dec-14 09:56 045 3 gusting 5 10.0
2018-Dec-14 09:46 045 2 gusting 5 10.0
2018-Dec-14 09:36 315 3 gusting 5 10.0
2018-Dec-14 09:26 315 4 gusting 10 10.0
2018-Dec-14 09:16 315 3 gusting 7 10.0
2018-Dec-14 09:06 292 5 gusting 10 9.4
2018-Dec-14 08:56 315 6 gusting 10 9.4
2018-Dec-14 08:46 315 5 gusting 6 9.4
2018-Dec-14 08:36 315 4 gusting 6 8.9
2018-Dec-14 08:26 315 6 gusting 8 8.9
2018-Dec-14 08:16 315 2 gusting 5 8.9
2018-Dec-14 08:06 315 2 gusting 5 8.9
2018-Dec-14 07:56 315 2 gusting 4 8.9
2018-Dec-14 07:46 225 3 gusting 6 8.9
2018-Dec-14 07:36 315 3 gusting 6 8.9
2018-Dec-14 07:26 315 5 gusting 7 8.9
2018-Dec-14 07:16 315 2 gusting 5 8.9
2018-Dec-14 07:06 315 5 gusting 7 8.9
2018-Dec-14 06:56 270 3 gusting 6 8.9
2018-Dec-14 06:46 045 3 gusting 6 8.9
2018-Dec-14 06:36 315 3 gusting 6 8.9
2018-Dec-14 06:26 045 1 gusting 4 9.4
2018-Dec-14 06:16 270 5 gusting 10 9.4
2018-Dec-14 06:01 315 4 gusting 7 9.4
2018-Dec-14 05:46 315 6 gusting 10 9.4
2018-Dec-14 05:36 8.9
2018-Dec-14 05:21 315 5 gusting 8 8.9
2018-Dec-14 05:06 8.9
2018-Dec-14 04:56 090 2 gusting 6 9.4
2018-Dec-14 04:41 9.4
2018-Dec-14 04:26 315 6 gusting 11 9.4
2018-Dec-14 04:16 9.4
2018-Dec-14 04:01 315 7 gusting 11 9.4
2018-Dec-14 03:46 225 7 gusting 13 9.4
2018-Dec-14 03:36 315 4 gusting 6 10.0
2018-Dec-14 03:21 270 6 gusting 12 10.0
2018-Dec-14 03:06 315 6 gusting 11 10.0
2018-Dec-14 02:56 315 5 gusting 9 10.0
2018-Dec-14 02:41 292 6 gusting 9 10.0
2018-Dec-14 02:26 292 5 gusting 9 10.0
2018-Dec-14 02:16 292 4 gusting 7 10.0
2018-Dec-14 02:01 10.0
2018-Dec-14 01:46 10.0
2018-Dec-14 01:36 10.0
2018-Dec-14 01:21 315 10 gusting 16 9.4
2018-Dec-14 01:06 315 7 gusting 12 9.4
2018-Dec-14 00:56 315 3 gusting 7 8.9
2018-Dec-14 00:41 315 3 gusting 6 8.9
2018-Dec-14 00:26 292 6 gusting 12 8.9
2018-Dec-14 00:16 270 6 gusting 13 8.9
2018-Dec-14 00:01 315 6 gusting 10 8.3
2018-Dec-13 23:46 337 5 gusting 9 8.3
2018-Dec-13 23:36 315 3 gusting 7 8.3
2018-Dec-13 23:21 270 3 gusting 6 8.3
2018-Dec-13 23:06 315 3 gusting 5 7.8
2018-Dec-13 22:56 7.8
2018-Dec-13 22:41 337 3 gusting 6 7.8
2018-Dec-13 22:26 315 2 gusting 6 7.8
2018-Dec-13 22:16 090 3 gusting 7 7.8
2018-Dec-13 22:01 315 5 gusting 7 7.8
2018-Dec-13 21:51 7.8
2018-Dec-13 21:36 7.8
2018-Dec-13 21:21 292 7 gusting 9 7.8
2018-Dec-13 21:06 315 7 gusting 16 7.8
2018-Dec-13 20:56 292 10 gusting 16 8.3
2018-Dec-13 20:41 225 3 gusting 6 8.9
2018-Dec-13 20:26 292 2 gusting 5 8.9
2018-Dec-13 20:16 337 2 gusting 6 8.9
2018-Dec-13 20:01 337 1 gusting 5 9.4
2018-Dec-13 19:46 292 9 gusting 19 9.4
2018-Dec-13 19:36 315 5 gusting 13 10.0
2018-Dec-13 19:21 022 7 gusting 13 10.0
2018-Dec-13 19:06 315 5 gusting 7 10.0
2018-Dec-13 18:56 315 3 gusting 6 10.0
2018-Dec-13 18:41 10.0
2018-Dec-13 18:26 315 8 gusting 14 10.0
2018-Dec-13 18:16 315 6 gusting 9 10.6
2018-Dec-13 18:01 270 3 gusting 6 10.6
2018-Dec-13 17:46 315 8 gusting 16 10.6
2018-Dec-13 17:36 292 6 gusting 9 10.6
2018-Dec-13 17:21 315 8 gusting 14 10.6
2018-Dec-13 17:06 315 6 gusting 10 10.6
2018-Dec-13 16:56 315 0 gusting 2 10.6
2018-Dec-13 16:41 11.1
2018-Dec-13 16:26 090 11.1
2018-Dec-13 16:16 315 5 gusting 10 11.1
2018-Dec-13 16:01 315 3 gusting 6 11.1
2018-Dec-13 15:46 10.6
2018-Dec-13 15:36 315 1 gusting 2 10.6
2018-Dec-13 15:21 315 2 gusting 5 11.1
2018-Dec-13 15:06 11.1
2018-Dec-13 14:56 045 11.1
2018-Dec-13 14:41 270 11.1
2018-Dec-13 14:26 11.1
2018-Dec-13 14:16 11.7
2018-Dec-13 14:01 270 11.7
2018-Dec-13 13:46 270 2 gusting 3 11.7
2018-Dec-13 13:36 12.2
2018-Dec-13 13:21 225 12.2
2018-Dec-13 13:06 292 2 gusting 2 12.8
2018-Dec-13 12:56 270 3 gusting 5 12.8
2018-Dec-13 12:41 225 1 gusting 4 13.3
2018-Dec-13 12:26 270 0 gusting 3 13.3
2018-Dec-13 12:16 180 3 gusting 7 12.8
2018-Dec-13 12:01 315 2 gusting 5 12.8